createdAt,value
2022-08-31T00:00:35.699Z,81.45
2022-08-31T00:01:35.701Z,81.45
2022-08-31T00:02:35.733Z,81.75
2022-08-31T00:03:35.689Z,81.24
2022-08-31T00:04:35.703Z,81.75
2022-08-31T00:05:35.630Z,81.48
2022-08-31T00:06:35.629Z,81.59
2022-08-31T00:07:35.643Z,81.68
2022-08-31T00:08:35.633Z,81.48
2022-08-31T00:09:35.598Z,81.38
2022-08-31T00:10:37.109Z,80.98
2022-08-31T00:11:35.579Z,81.18
2022-08-31T00:12:35.567Z,81.18
2022-08-31T00:13:35.924Z,81.89
2022-08-31T00:14:35.535Z,81.38
2022-08-31T00:15:35.574Z,82.09
2022-08-31T00:16:35.558Z,81.18
2022-08-31T00:17:35.512Z,81.89
2022-08-31T00:18:35.503Z,81.79
2022-08-31T00:19:35.508Z,81.79
2022-08-31T00:20:35.470Z,81.82
2022-08-31T00:21:35.486Z,81.93
2022-08-31T00:22:35.445Z,81.79
2022-08-31T00:23:36.380Z,82.13
2022-08-31T00:24:35.444Z,81.93
2022-08-31T00:25:35.429Z,82.64
2022-08-31T00:26:35.410Z,81.93
2022-08-31T00:27:35.401Z,82.33
2022-08-31T00:28:35.388Z,81.93
2022-08-31T00:29:35.380Z,81.82
2022-08-31T00:30:35.383Z,82.53
2022-08-31T00:31:35.419Z,82.53
2022-08-31T00:32:35.333Z,82.23
2022-08-31T00:33:35.878Z,81.82
2022-08-31T00:34:35.316Z,82.29
2022-08-31T00:35:35.314Z,82.43
2022-08-31T00:36:35.316Z,82.73
2022-08-31T00:37:35.289Z,83.24
2022-08-31T00:38:35.288Z,82.64
2022-08-31T00:39:35.265Z,82.93
2022-08-31T00:40:44.240Z,82.43
2022-08-31T00:41:36.266Z,82.53
2022-08-31T00:42:35.231Z,82.43
2022-08-31T00:43:35.219Z,82.43
2022-08-31T00:44:35.213Z,82.43
2022-08-31T00:45:35.259Z,82.53
2022-08-31T00:46:35.176Z,83.24
2022-08-31T00:47:35.193Z,83.24
2022-08-31T00:48:35.169Z,82.67
2022-08-31T00:49:35.149Z,83.38
2022-08-31T00:50:35.152Z,82.87
2022-08-31T00:51:35.129Z,83.48
2022-08-31T00:52:37.803Z,82.87
2022-08-31T00:53:35.112Z,82.87
2022-08-31T00:54:35.102Z,83.28
2022-08-31T00:55:35.088Z,82.98
2022-08-31T00:56:35.084Z,83.18
2022-08-31T00:57:35.080Z,83.48
2022-08-31T00:58:35.048Z,83.58
2022-08-31T00:59:35.886Z,83.28
2022-08-31T01:00:35.032Z,82.87
2022-08-31T01:01:35.089Z,83.18
2022-08-31T01:02:35.449Z,83.78
2022-08-31T01:03:35.001Z,82.81
2022-08-31T01:04:34.981Z,83.88
2022-08-31T01:05:34.986Z,82.67
2022-08-31T01:06:34.971Z,83.12
2022-08-31T01:07:34.954Z,82.87
2022-08-31T01:08:34.966Z,83.32
2022-08-31T01:09:34.932Z,83.01
2022-08-31T01:10:34.919Z,82.98
2022-08-31T01:11:34.921Z,83.82
2022-08-31T01:12:35.880Z,82.71
2022-08-31T01:13:34.915Z,82.47
2022-08-31T01:14:35.380Z,82.71
2022-08-31T01:15:34.870Z,82.71
2022-08-31T01:16:34.915Z,82.21
2022-08-31T01:17:34.841Z,81.90
2022-08-31T01:18:34.835Z,81.90
2022-08-31T01:19:34.937Z,83.32
2022-08-31T01:20:41.374Z,81.87
2022-08-31T01:21:35.803Z,81.50
2022-08-31T01:22:34.786Z,81.80
2022-08-31T01:23:34.781Z,81.90
2022-08-31T01:24:34.760Z,81.10
2022-08-31T01:25:34.778Z,81.50
2022-08-31T01:26:35.380Z,81.90
2022-08-31T01:27:34.734Z,81.34
2022-08-31T01:28:34.727Z,81.34
2022-08-31T01:29:37.413Z,82.21
2022-08-31T01:30:34.719Z,81.30
2022-08-31T01:31:34.794Z,81.90
2022-08-31T01:32:34.675Z,81.80
2022-08-31T01:33:37.391Z,81.54
2022-08-31T01:34:34.646Z,81.94
2022-08-31T01:35:37.392Z,81.44
2022-08-31T01:36:34.914Z,81.50
2022-08-31T01:37:34.624Z,81.70
2022-08-31T01:38:34.604Z,81.10
2022-08-31T01:39:34.608Z,81.50
2022-08-31T01:40:34.687Z,81.64
2022-08-31T01:41:41.401Z,80.93
2022-08-31T01:42:34.645Z,81.03
2022-08-31T01:43:34.562Z,81.34
2022-08-31T01:44:34.540Z,81.34
2022-08-31T01:45:34.537Z,81.64
2022-08-31T01:46:34.557Z,81.54
2022-08-31T01:47:34.500Z,81.94
2022-08-31T01:48:34.527Z,81.74
2022-08-31T01:49:37.396Z,81.23
2022-08-31T01:50:34.479Z,81.68
2022-08-31T01:51:35.391Z,81.88
2022-08-31T01:52:34.449Z,81.78
2022-08-31T01:53:34.433Z,81.17
2022-08-31T01:54:36.448Z,81.48
2022-08-31T01:55:34.414Z,81.98
2022-08-31T01:56:34.412Z,81.48
2022-08-31T01:57:35.395Z,82.08
2022-08-31T01:58:34.415Z,82.08
2022-08-31T01:59:34.367Z,81.51
2022-08-31T02:00:34.378Z,81.48
2022-08-31T02:01:34.711Z,81.57
2022-08-31T02:02:34.405Z,81.71
2022-08-31T02:03:34.331Z,82.12
2022-08-31T02:04:34.450Z,81.71
2022-08-31T02:05:34.302Z,81.48
2022-08-31T02:06:34.320Z,81.62
2022-08-31T02:07:34.287Z,80.91
2022-08-31T02:08:34.285Z,81.62
2022-08-31T02:09:34.253Z,81.31
2022-08-31T02:10:34.277Z,81.17
2022-08-31T02:11:34.236Z,81.27
2022-08-31T02:12:40.899Z,81.57
2022-08-31T02:13:34.217Z,81.17
2022-08-31T02:14:34.436Z,80.57
2022-08-31T02:15:34.892Z,80.36
2022-08-31T02:16:34.312Z,80.36
2022-08-31T02:17:36.887Z,80.66
2022-08-31T02:18:34.161Z,80.77
2022-08-31T02:19:34.147Z,80.66
2022-08-31T02:20:34.906Z,80.80
2022-08-31T02:21:34.122Z,80.60
2022-08-31T02:22:34.431Z,80.87
2022-08-31T02:23:34.125Z,80.71
2022-08-31T02:24:34.094Z,80.80
2022-08-31T02:25:34.088Z,80.91
2022-08-31T02:26:36.898Z,80.91
2022-08-31T02:27:34.084Z,80.40
2022-08-31T02:28:34.067Z,81.51
2022-08-31T02:29:34.036Z,80.91
2022-08-31T02:30:34.021Z,80.71
2022-08-31T02:31:34.067Z,80.71
2022-08-31T02:32:34.020Z,80.60
2022-08-31T02:33:36.898Z,81.01
2022-08-31T02:34:33.984Z,80.74
2022-08-31T02:35:33.953Z,80.71
2022-08-31T02:36:35.777Z,80.54
2022-08-31T02:37:33.953Z,80.84
2022-08-31T02:38:33.951Z,80.74
2022-08-31T02:39:33.932Z,80.84
2022-08-31T02:40:33.950Z,80.64
2022-08-31T02:41:33.895Z,80.47
2022-08-31T02:42:40.849Z,80.68
2022-08-31T02:43:34.895Z,80.58
2022-08-31T02:44:33.902Z,80.78
2022-08-31T02:45:33.843Z,81.59
2022-08-31T02:46:33.859Z,80.98
2022-08-31T02:47:33.825Z,81.09
2022-08-31T02:48:33.824Z,81.09
2022-08-31T02:49:33.801Z,80.68
2022-08-31T02:50:33.822Z,81.18
2022-08-31T02:51:33.773Z,80.47
2022-08-31T02:52:33.930Z,80.68
2022-08-31T02:53:33.763Z,81.02
2022-08-31T02:54:33.737Z,80.78
2022-08-31T02:55:33.770Z,80.92
2022-08-31T02:56:33.729Z,81.12
2022-08-31T02:57:33.718Z,80.68
2022-08-31T02:58:33.702Z,80.62
2022-08-31T02:59:33.700Z,80.88
2022-08-31T03:00:33.681Z,80.88
2022-08-31T03:01:34.024Z,80.68
2022-08-31T03:02:33.858Z,80.98
2022-08-31T03:03:36.402Z,80.68
2022-08-31T03:04:33.663Z,80.98
2022-08-31T03:05:33.623Z,80.98
2022-08-31T03:06:33.618Z,80.72
2022-08-31T03:07:33.650Z,80.88
2022-08-31T03:08:36.401Z,80.82
2022-08-31T03:09:33.587Z,80.82
2022-08-31T03:10:33.577Z,80.62
2022-08-31T03:11:33.581Z,81.02
2022-08-31T03:12:33.547Z,80.92
2022-08-31T03:13:33.543Z,80.72
2022-08-31T03:14:33.542Z,81.18
2022-08-31T03:15:33.541Z,80.52
2022-08-31T03:16:33.499Z,80.82
2022-08-31T03:17:36.400Z,80.52
2022-08-31T03:18:33.514Z,80.62
2022-08-31T03:19:33.472Z,80.72
2022-08-31T03:20:34.506Z,80.52
2022-08-31T03:21:33.447Z,80.82
2022-08-31T03:22:33.465Z,81.12
2022-08-31T03:23:33.427Z,80.52
2022-08-31T03:24:33.416Z,80.62
2022-08-31T03:25:33.403Z,81.02
2022-08-31T03:26:33.420Z,81.12
2022-08-31T03:27:33.386Z,80.82
2022-08-31T03:28:33.442Z,80.82
2022-08-31T03:29:33.358Z,80.72
2022-08-31T03:30:33.354Z,80.82
2022-08-31T03:31:33.374Z,80.65
2022-08-31T03:32:33.330Z,81.06
2022-08-31T03:33:33.428Z,81.16
2022-08-31T03:34:33.314Z,81.46
2022-08-31T03:35:33.287Z,80.55
2022-08-31T03:36:33.285Z,80.86
2022-08-31T03:37:33.276Z,81.60
2022-08-31T03:38:33.277Z,82.01
2022-08-31T03:39:33.289Z,82.31
2022-08-31T03:40:33.264Z,81.81
2022-08-31T03:41:33.258Z,82.31
2022-08-31T03:42:33.316Z,81.91
2022-08-31T03:43:33.217Z,81.91
2022-08-31T03:44:33.319Z,81.81
2022-08-31T03:45:33.215Z,82.01
2022-08-31T03:46:54.187Z,81.91
2022-08-31T03:47:33.168Z,81.81
2022-08-31T03:48:33.153Z,81.60
2022-08-31T03:49:33.140Z,81.50
2022-08-31T03:50:33.153Z,82.01
2022-08-31T03:51:33.120Z,82.01
2022-08-31T03:52:33.139Z,81.91
2022-08-31T03:53:33.091Z,81.71
2022-08-31T03:54:33.086Z,82.21
2022-08-31T03:55:33.909Z,81.60
2022-08-31T03:56:33.093Z,81.85
2022-08-31T03:57:33.075Z,82.21
2022-08-31T03:58:33.049Z,81.74
2022-08-31T03:59:33.030Z,82.56
2022-08-31T04:00:47.906Z,81.64
2022-08-31T04:01:33.074Z,81.44
2022-08-31T04:02:37.497Z,82.35
2022-08-31T04:03:33.906Z,82.45
2022-08-31T04:04:32.992Z,81.54
2022-08-31T04:05:35.908Z,81.40
2022-08-31T04:06:32.962Z,81.64
2022-08-31T04:07:42.086Z,81.34
2022-08-31T04:08:33.926Z,82.25
2022-08-31T04:09:32.924Z,82.56
2022-08-31T04:10:32.921Z,82.35
2022-08-31T04:11:44.575Z,82.35
2022-08-31T04:12:33.942Z,82.25
2022-08-31T04:13:32.902Z,82.56
2022-08-31T04:14:35.415Z,82.86
2022-08-31T04:15:35.461Z,82.35
2022-08-31T04:16:32.840Z,82.29
2022-08-31T04:17:35.417Z,83.06
2022-08-31T04:18:32.843Z,82.90
2022-08-31T04:19:32.834Z,83.00
2022-08-31T04:20:32.818Z,82.90
2022-08-31T04:21:32.793Z,83.00
2022-08-31T04:22:32.777Z,83.31
2022-08-31T04:23:32.772Z,83.10
2022-08-31T04:24:32.937Z,82.90
2022-08-31T04:25:32.768Z,83.71
2022-08-31T04:26:32.738Z,82.70
2022-08-31T04:27:32.726Z,82.90
2022-08-31T04:28:32.729Z,83.00
2022-08-31T04:29:34.769Z,82.39
2022-08-31T04:30:32.686Z,82.39
2022-08-31T04:31:32.743Z,82.90
2022-08-31T04:32:32.675Z,83.00
2022-08-31T04:33:33.414Z,82.80
2022-08-31T04:34:32.675Z,83.10
2022-08-31T04:35:32.639Z,83.40
2022-08-31T04:36:32.634Z,82.80
2022-08-31T04:37:32.632Z,82.50
2022-08-31T04:38:32.599Z,82.59
2022-08-31T04:39:32.890Z,82.59
2022-08-31T04:40:32.614Z,82.59
2022-08-31T04:41:32.589Z,82.39
2022-08-31T04:42:32.547Z,82.39
2022-08-31T04:43:32.550Z,82.50
2022-08-31T04:44:35.407Z,82.19
2022-08-31T04:45:32.584Z,82.50
2022-08-31T04:46:32.505Z,82.59
2022-08-31T04:47:32.556Z,82.45
2022-08-31T04:48:32.490Z,82.39
2022-08-31T04:49:32.492Z,82.59
2022-08-31T04:50:32.476Z,82.29
2022-08-31T04:51:35.443Z,82.29
2022-08-31T04:52:32.442Z,81.74
2022-08-31T04:53:32.466Z,81.74
2022-08-31T04:54:32.425Z,81.78
2022-08-31T04:55:34.911Z,81.48
2022-08-31T04:56:32.407Z,82.19
2022-08-31T04:57:32.389Z,82.35
2022-08-31T04:58:34.915Z,82.25
2022-08-31T04:59:32.394Z,81.99
2022-08-31T05:00:32.347Z,81.95
2022-08-31T05:01:36.331Z,81.64
2022-08-31T05:02:33.542Z,81.74
2022-08-31T05:03:32.923Z,82.25
2022-08-31T05:04:38.909Z,81.95
2022-08-31T05:05:32.445Z,82.35
2022-08-31T05:06:32.923Z,82.15
2022-08-31T05:07:32.281Z,81.44
2022-08-31T05:08:32.268Z,81.85
2022-08-31T05:09:32.917Z,81.54
2022-08-31T05:10:32.446Z,81.95
2022-08-31T05:11:32.244Z,81.74
2022-08-31T05:12:32.242Z,81.44
2022-08-31T05:13:32.207Z,81.85
2022-08-31T05:14:32.191Z,82.15
2022-08-31T05:15:32.242Z,81.74
2022-08-31T05:16:34.933Z,81.64
2022-08-31T05:17:32.182Z,81.74
2022-08-31T05:18:32.182Z,81.85
2022-08-31T05:19:32.204Z,81.99
2022-08-31T05:20:32.132Z,82.05
2022-08-31T05:21:32.129Z,82.25
2022-08-31T05:22:32.116Z,81.85
2022-08-31T05:23:32.124Z,81.64
2022-08-31T05:24:32.088Z,81.95
2022-08-31T05:25:32.094Z,81.13
2022-08-31T05:26:32.075Z,82.15
2022-08-31T05:27:32.072Z,81.74
2022-08-31T05:28:33.073Z,81.95
2022-08-31T05:29:32.029Z,82.09
2022-08-31T05:30:32.084Z,81.48
2022-08-31T05:31:33.049Z,82.70
2022-08-31T05:32:32.001Z,82.19
2022-08-31T05:33:32.018Z,82.59
2022-08-31T05:34:32.007Z,83.06
2022-08-31T05:35:32.914Z,82.45
2022-08-31T05:36:31.955Z,82.35
2022-08-31T05:37:31.954Z,82.35
2022-08-31T05:38:31.959Z,81.91
2022-08-31T05:39:31.927Z,81.50
2022-08-31T05:40:32.469Z,81.95
2022-08-31T05:41:31.903Z,82.01
2022-08-31T05:42:31.910Z,82.01
2022-08-31T05:43:31.950Z,82.15
2022-08-31T05:44:34.414Z,81.50
2022-08-31T05:45:31.855Z,81.54
2022-08-31T05:46:31.858Z,82.25
2022-08-31T05:47:31.830Z,82.05
2022-08-31T05:48:31.847Z,82.11
2022-08-31T05:49:32.663Z,81.40
2022-08-31T05:50:31.800Z,81.95
2022-08-31T05:51:34.912Z,81.95
2022-08-31T05:52:33.416Z,82.35
2022-08-31T05:53:34.423Z,82.25
2022-08-31T05:54:31.770Z,82.25
2022-08-31T05:55:32.440Z,82.35
2022-08-31T05:56:31.766Z,82.56
2022-08-31T05:57:31.732Z,82.86
2022-08-31T05:58:31.724Z,82.35
2022-08-31T05:59:32.411Z,82.25
2022-08-31T06:00:31.697Z,82.76
2022-08-31T06:01:31.714Z,82.35
2022-08-31T06:02:31.684Z,82.35
2022-08-31T06:03:31.655Z,82.76
2022-08-31T06:04:31.651Z,82.35
2022-08-31T06:05:31.719Z,82.25
2022-08-31T06:06:34.914Z,82.66
2022-08-31T06:07:32.919Z,82.15
2022-08-31T06:08:31.599Z,82.52
2022-08-31T06:09:31.602Z,82.35
2022-08-31T06:10:38.414Z,82.62
2022-08-31T06:11:32.450Z,81.74
2022-08-31T06:12:31.561Z,81.54
2022-08-31T06:13:31.570Z,82.25
2022-08-31T06:14:31.530Z,81.44
2022-08-31T06:15:31.535Z,82.25
2022-08-31T06:16:31.540Z,82.25
2022-08-31T06:17:31.511Z,81.91
2022-08-31T06:18:31.492Z,82.21
2022-08-31T06:19:31.544Z,81.81
2022-08-31T06:20:31.482Z,82.31
2022-08-31T06:21:31.469Z,82.01
2022-08-31T06:22:32.415Z,81.81
2022-08-31T06:23:31.441Z,82.01
2022-08-31T06:24:31.439Z,82.21
2022-08-31T06:25:31.420Z,82.31
2022-08-31T06:26:37.921Z,81.87
2022-08-31T06:27:33.923Z,81.37
2022-08-31T06:28:31.377Z,81.16
2022-08-31T06:29:31.784Z,81.77
2022-08-31T06:30:31.452Z,81.06
2022-08-31T06:31:33.993Z,82.34
2022-08-31T06:32:31.346Z,80.62
2022-08-31T06:33:31.325Z,81.43
2022-08-31T06:34:31.324Z,81.52
2022-08-31T06:35:37.920Z,81.12
2022-08-31T06:36:31.313Z,80.38
2022-08-31T06:37:31.285Z,80.47
2022-08-31T06:38:32.847Z,79.87
2022-08-31T06:39:31.265Z,79.77
2022-08-31T06:40:31.362Z,80.54
2022-08-31T06:41:36.203Z,80.54
2022-08-31T06:42:32.255Z,80.80
2022-08-31T06:43:31.214Z,80.71
2022-08-31T06:44:31.214Z,80.10
2022-08-31T06:45:31.205Z,79.29
2022-08-31T06:46:37.947Z,79.59
2022-08-31T06:47:31.165Z,79.25
2022-08-31T06:48:31.183Z,78.95
2022-08-31T06:49:31.226Z,78.95
2022-08-31T06:50:31.138Z,79.75
2022-08-31T06:51:31.133Z,78.64
2022-08-31T06:52:32.359Z,79.35
2022-08-31T06:53:31.926Z,79.55
2022-08-31T06:54:31.951Z,78.85
2022-08-31T06:55:31.104Z,79.62
2022-08-31T06:56:31.067Z,80.16
2022-08-31T06:57:31.067Z,79.46
2022-08-31T06:58:31.040Z,79.21
2022-08-31T06:59:31.442Z,79.32
2022-08-31T07:00:31.938Z,79.41
2022-08-31T07:01:38.040Z,79.32
2022-08-31T07:02:32.058Z,79.41
2022-08-31T07:03:36.454Z,79.11
2022-08-31T07:04:30.977Z,78.81
2022-08-31T07:05:30.965Z,79.62
2022-08-31T07:06:30.995Z,78.81
2022-08-31T07:07:37.915Z,79.99
2022-08-31T07:08:31.932Z,79.48
2022-08-31T07:09:31.427Z,78.88
2022-08-31T07:10:33.427Z,79.38
2022-08-31T07:11:31.423Z,79.68
2022-08-31T07:12:30.913Z,79.48
2022-08-31T07:13:37.426Z,79.58
2022-08-31T07:14:33.417Z,79.79
2022-08-31T07:15:30.855Z,79.54
2022-08-31T07:16:30.918Z,79.44
2022-08-31T07:17:30.845Z,79.38
2022-08-31T07:18:33.434Z,79.64
2022-08-31T07:19:31.427Z,79.64
2022-08-31T07:20:30.806Z,78.63
2022-08-31T07:21:30.800Z,79.64
2022-08-31T07:22:30.796Z,79.24
2022-08-31T07:23:30.778Z,79.64
2022-08-31T07:24:30.803Z,79.14
2022-08-31T07:25:30.747Z,79.50
2022-08-31T07:26:34.493Z,79.74
2022-08-31T07:27:31.749Z,79.61
2022-08-31T07:28:30.715Z,78.30
2022-08-31T07:29:30.706Z,79.41
2022-08-31T07:30:33.429Z,79.41
2022-08-31T07:31:30.678Z,78.80
2022-08-31T07:32:30.687Z,79.41
2022-08-31T07:33:30.661Z,78.16
2022-08-31T07:34:30.661Z,78.70
2022-08-31T07:35:30.642Z,79.30
2022-08-31T07:36:30.624Z,79.30
2022-08-31T07:37:30.618Z,78.80
2022-08-31T07:38:32.436Z,78.50
2022-08-31T07:39:30.610Z,78.70
2022-08-31T07:40:30.673Z,79.21
2022-08-31T07:41:30.561Z,79.21
2022-08-31T07:42:30.560Z,79.21
2022-08-31T07:43:30.555Z,79.41
2022-08-31T07:44:30.534Z,78.39
2022-08-31T07:45:37.278Z,78.59
2022-08-31T07:46:34.483Z,78.90
2022-08-31T07:47:30.502Z,78.66
2022-08-31T07:48:33.444Z,79.27
2022-08-31T07:49:30.482Z,78.36
2022-08-31T07:50:31.464Z,78.50
2022-08-31T07:51:30.469Z,79.61
2022-08-31T07:52:30.454Z,79.00
2022-08-31T07:53:30.440Z,79.61
2022-08-31T07:54:30.425Z,79.61
2022-08-31T07:55:36.932Z,79.61
2022-08-31T07:56:34.190Z,79.50
2022-08-31T07:57:30.933Z,79.61
2022-08-31T07:58:30.405Z,79.91
2022-08-31T07:59:30.367Z,79.67
2022-08-31T08:00:30.362Z,79.71
2022-08-31T08:01:30.509Z,79.91
2022-08-31T08:02:31.397Z,78.70
2022-08-31T08:03:30.929Z,79.10
2022-08-31T08:04:30.325Z,79.10
2022-08-31T08:05:30.511Z,80.01
2022-08-31T08:06:32.457Z,79.91
2022-08-31T08:07:30.288Z,80.21
2022-08-31T08:08:31.821Z,78.76
2022-08-31T08:09:36.940Z,79.61
2022-08-31T08:10:32.932Z,79.21
2022-08-31T08:11:30.463Z,79.50
2022-08-31T08:12:30.226Z,79.50
2022-08-31T08:13:30.235Z,79.61
2022-08-31T08:14:30.399Z,80.01
2022-08-31T08:15:30.215Z,79.47
2022-08-31T08:16:30.271Z,79.97
2022-08-31T08:17:30.172Z,79.67
2022-08-31T08:18:30.456Z,79.27
2022-08-31T08:19:30.155Z,79.87
2022-08-31T08:20:34.273Z,79.27
2022-08-31T08:21:31.125Z,79.53
2022-08-31T08:22:50.845Z,79.27
2022-08-31T08:23:31.121Z,79.13
2022-08-31T08:24:30.095Z,78.92
2022-08-31T08:25:30.076Z,79.23
2022-08-31T08:26:30.081Z,79.03
2022-08-31T08:27:30.076Z,79.23
2022-08-31T08:28:42.853Z,79.13
2022-08-31T08:29:33.942Z,80.04
2022-08-31T08:30:30.036Z,79.13
2022-08-31T08:31:30.086Z,79.80
2022-08-31T08:32:31.978Z,79.09
2022-08-31T08:33:29.997Z,78.99
2022-08-31T08:34:32.933Z,78.85
2022-08-31T08:35:29.969Z,78.35
2022-08-31T08:36:29.972Z,78.65
2022-08-31T08:37:54.375Z,77.75
2022-08-31T08:38:30.964Z,78.96
2022-08-31T08:39:29.946Z,78.01
2022-08-31T08:40:30.043Z,77.75
2022-08-31T08:41:30.446Z,78.31
2022-08-31T08:42:29.893Z,78.47
2022-08-31T08:43:31.059Z,76.67
2022-08-31T08:44:29.870Z,76.46
2022-08-31T08:45:30.076Z,76.56
2022-08-31T08:46:35.812Z,76.16
2022-08-31T08:47:34.381Z,76.53
2022-08-31T08:48:30.830Z,76.73
2022-08-31T08:49:30.444Z,76.43
2022-08-31T08:50:29.825Z,76.49
2022-08-31T08:51:32.437Z,76.69
2022-08-31T08:52:29.785Z,76.49
2022-08-31T08:53:32.442Z,76.39
2022-08-31T08:54:29.766Z,76.15
2022-08-31T08:55:29.770Z,74.74
2022-08-31T08:56:33.845Z,75.15
2022-08-31T08:57:29.758Z,76.21
2022-08-31T08:58:30.443Z,76.32
2022-08-31T08:59:29.714Z,74.71
2022-08-31T09:00:29.718Z,76.32
2022-08-31T09:01:32.469Z,75.31
2022-08-31T09:02:29.705Z,75.08
2022-08-31T09:03:29.671Z,75.38
2022-08-31T09:04:29.666Z,75.48
2022-08-31T09:05:29.647Z,75.18
2022-08-31T09:06:32.150Z,74.27
2022-08-31T09:07:30.611Z,74.27
2022-08-31T09:08:29.997Z,74.31
2022-08-31T09:09:29.598Z,74.18
2022-08-31T09:10:32.444Z,75.15
2022-08-31T09:11:32.451Z,75.21
2022-08-31T09:12:29.575Z,74.81
2022-08-31T09:13:29.536Z,75.11
2022-08-31T09:14:29.586Z,75.21
2022-08-31T09:15:29.524Z,74.85
2022-08-31T09:16:29.566Z,75.45
2022-08-31T09:17:51.444Z,76.02
2022-08-31T09:18:29.489Z,76.02
2022-08-31T09:19:29.480Z,76.08
2022-08-31T09:20:31.467Z,75.18
2022-08-31T09:21:29.494Z,74.37
2022-08-31T09:22:29.966Z,74.48
2022-08-31T09:23:29.474Z,75.08
2022-08-31T09:24:29.422Z,74.88
2022-08-31T09:25:29.417Z,75.48
2022-08-31T09:26:29.394Z,75.04
2022-08-31T09:27:29.960Z,74.94
2022-08-31T09:28:29.381Z,75.14
2022-08-31T09:29:29.471Z,75.34
2022-08-31T09:30:29.951Z,74.57
2022-08-31T09:31:29.408Z,75.18
2022-08-31T09:32:29.354Z,75.08
2022-08-31T09:33:29.337Z,75.88
2022-08-31T09:34:29.304Z,75.68
2022-08-31T09:35:29.290Z,75.08
2022-08-31T09:36:29.294Z,76.18
2022-08-31T09:37:29.277Z,74.68
2022-08-31T09:38:29.287Z,74.98
2022-08-31T09:39:29.247Z,75.34
2022-08-31T09:40:30.298Z,76.15
2022-08-31T09:41:29.945Z,75.10
2022-08-31T09:42:29.222Z,75.10
2022-08-31T09:43:35.947Z,74.80
2022-08-31T09:44:29.491Z,75.01
2022-08-31T09:45:29.223Z,74.87
2022-08-31T09:46:35.942Z,74.10
2022-08-31T09:47:29.169Z,73.50
2022-08-31T09:48:29.951Z,74.60
2022-08-31T09:49:29.137Z,75.07
2022-08-31T09:50:29.154Z,74.37
2022-08-31T09:51:29.984Z,74.17
2022-08-31T09:52:29.102Z,74.17
2022-08-31T09:53:29.098Z,73.07
2022-08-31T09:54:50.953Z,73.43
2022-08-31T09:56:40.060Z,73.53
2022-08-31T09:57:42.530Z,73.33
2022-08-31T09:58:39.845Z,73.10
2022-08-31T09:59:39.820Z,72.09
2022-08-31T10:00:39.822Z,72.60
2022-08-31T10:01:39.918Z,72.69
2022-08-31T10:02:39.778Z,72.39
2022-08-31T10:03:39.781Z,72.96
2022-08-31T10:04:40.609Z,72.86
2022-08-31T10:05:39.752Z,71.76
2022-08-31T10:06:39.772Z,72.76
2022-08-31T10:07:39.746Z,71.96
2022-08-31T10:08:39.752Z,72.03
2022-08-31T10:09:39.706Z,72.06
2022-08-31T10:10:40.543Z,71.26
2022-08-31T10:11:39.686Z,71.16
2022-08-31T10:12:39.685Z,71.06
2022-08-31T10:13:39.681Z,71.66
2022-08-31T10:14:39.657Z,71.86
2022-08-31T10:15:39.777Z,71.46
2022-08-31T10:16:39.637Z,71.46
2022-08-31T10:17:39.639Z,70.92
2022-08-31T10:18:39.711Z,70.92
2022-08-31T10:19:46.536Z,70.32
2022-08-31T10:20:39.582Z,71.99
2022-08-31T10:21:39.561Z,69.86
2022-08-31T10:22:40.530Z,70.06
2022-08-31T10:23:39.563Z,69.96
2022-08-31T10:24:39.569Z,69.43
2022-08-31T10:25:39.545Z,69.02
2022-08-31T10:26:39.512Z,68.82
2022-08-31T10:27:39.535Z,68.79
2022-08-31T10:28:39.509Z,67.60
2022-08-31T10:29:39.515Z,66.73
2022-08-31T10:30:40.216Z,68.36
2022-08-31T10:31:39.480Z,69.29
2022-08-31T10:32:46.038Z,69.56
2022-08-31T10:33:39.465Z,69.73
2022-08-31T10:34:39.444Z,68.49
2022-08-31T10:35:39.563Z,69.09
2022-08-31T10:36:39.429Z,67.76
2022-08-31T10:37:39.395Z,67.86
2022-08-31T10:38:39.397Z,67.33
2022-08-31T10:39:39.380Z,66.80
2022-08-31T10:40:39.690Z,65.97
2022-08-31T10:41:39.373Z,67.17
2022-08-31T10:42:39.342Z,65.08
2022-08-31T10:43:39.335Z,66.67
2022-08-31T10:44:39.322Z,64.78
2022-08-31T10:50:51.086Z,64.71
2022-08-31T10:51:22.949Z,65.20
2022-08-31T10:52:22.940Z,66.00
2022-08-31T10:53:22.963Z,66.60
2022-08-31T10:54:22.932Z,65.61
2022-08-31T10:55:22.898Z,65.41
2022-08-31T10:56:24.063Z,66.00
2022-08-31T10:57:25.913Z,66.60
2022-08-31T10:58:23.702Z,65.31
2022-08-31T10:59:22.882Z,66.17
2022-08-31T11:00:22.857Z,66.07
2022-08-31T11:01:23.707Z,65.77
2022-08-31T11:02:22.839Z,65.74
2022-08-31T11:03:25.668Z,64.25
2022-08-31T11:04:22.943Z,64.21
2022-08-31T11:05:22.803Z,65.70
2022-08-31T11:06:22.790Z,66.57
2022-08-31T11:07:25.649Z,64.75
2022-08-31T11:08:22.764Z,65.61
2022-08-31T11:09:23.650Z,65.31
2022-08-31T11:10:22.749Z,63.09
2022-08-31T11:11:22.765Z,62.96
2022-08-31T11:12:22.729Z,62.83
2022-08-31T11:13:22.749Z,63.20
2022-08-31T11:14:22.743Z,61.83
2022-08-31T11:15:22.684Z,62.70
2022-08-31T11:16:22.723Z,60.31
2022-08-31T11:17:22.676Z,61.68
2022-08-31T11:18:22.659Z,60.88
2022-08-31T11:19:22.673Z,60.28
2022-08-31T11:20:22.628Z,59.96
2022-08-31T11:21:22.637Z,61.08
2022-08-31T11:22:23.142Z,60.39
2022-08-31T11:23:23.631Z,60.58
2022-08-31T11:24:22.632Z,60.69
2022-08-31T11:25:22.607Z,60.71
2022-08-31T11:26:22.595Z,60.64
2022-08-31T11:27:22.558Z,61.47
2022-08-31T11:28:22.577Z,61.87
2022-08-31T11:29:22.530Z,61.94
2022-08-31T11:30:22.523Z,62.23
2022-08-31T11:31:22.541Z,61.04
2022-08-31T11:32:22.503Z,62.23
2022-08-31T11:33:23.149Z,61.74
2022-08-31T11:34:22.480Z,61.64
2022-08-31T11:35:22.475Z,62.13
2022-08-31T11:36:22.458Z,60.77
2022-08-31T11:37:22.459Z,62.37
2022-08-31T11:38:22.414Z,62.07
2022-08-31T11:39:22.428Z,62.26
2022-08-31T11:40:22.454Z,61.00
2022-08-31T11:41:22.411Z,62.29
2022-08-31T11:42:22.388Z,62.99
2022-08-31T11:43:22.409Z,62.59
2022-08-31T11:44:22.372Z,62.99
2022-08-31T11:45:22.359Z,61.63
2022-08-31T11:46:22.439Z,62.13
2022-08-31T11:47:22.350Z,63.15
2022-08-31T11:48:22.329Z,61.91
2022-08-31T11:49:22.317Z,64.71
2022-08-31T11:50:22.320Z,64.61
2022-08-31T11:51:22.285Z,63.11
2022-08-31T11:52:22.305Z,63.28
2022-08-31T11:53:22.280Z,62.41
2022-08-31T11:54:22.255Z,63.34
2022-08-31T11:55:22.258Z,64.81
2022-08-31T11:56:22.255Z,62.78
2022-08-31T11:57:22.273Z,62.45
2022-08-31T11:58:22.212Z,62.82
2022-08-31T11:59:22.198Z,60.43
2022-08-31T12:00:22.192Z,61.10
2022-08-31T12:01:22.177Z,61.34
2022-08-31T12:02:22.216Z,62.10
2022-08-31T12:03:22.186Z,61.08
2022-08-31T12:04:22.254Z,60.56
2022-08-31T12:05:22.161Z,58.30
2022-08-31T12:06:28.668Z,59.05
2022-08-31T12:07:22.123Z,60.05
2022-08-31T12:08:22.116Z,59.25
2022-08-31T12:09:22.109Z,60.52
2022-08-31T12:10:26.675Z,58.23
2022-08-31T12:11:25.661Z,59.85
2022-08-31T12:12:22.139Z,60.35
2022-08-31T12:13:36.668Z,59.32
2022-08-31T12:14:24.706Z,58.43
2022-08-31T12:15:24.603Z,57.64
2022-08-31T12:16:36.688Z,58.73
2022-08-31T12:17:22.814Z,59.09
2022-08-31T12:18:21.998Z,58.07
2022-08-31T12:19:21.993Z,57.85
2022-08-31T12:20:21.977Z,56.95
2022-08-31T12:21:21.954Z,58.84
2022-08-31T12:22:21.971Z,56.59
2022-08-31T12:23:30.644Z,58.80
2022-08-31T12:24:23.005Z,58.10
2022-08-31T12:25:21.927Z,58.97
2022-08-31T12:26:21.920Z,58.27
2022-08-31T12:27:21.902Z,57.15
2022-08-31T12:28:23.055Z,56.26
2022-08-31T12:29:22.870Z,55.15
2022-08-31T12:30:21.888Z,55.21
2022-08-31T12:31:21.960Z,55.11
2022-08-31T12:32:21.859Z,55.24
2022-08-31T12:33:28.657Z,55.64
2022-08-31T12:34:23.693Z,55.15
2022-08-31T12:35:21.809Z,55.91
2022-08-31T12:36:22.674Z,54.79
2022-08-31T12:37:21.790Z,54.86
2022-08-31T12:38:21.788Z,55.46
2022-08-31T12:39:22.670Z,55.88
2022-08-31T12:40:21.882Z,55.41
2022-08-31T12:41:25.269Z,55.24
2022-08-31T12:42:21.742Z,56.56
2022-08-31T12:43:21.809Z,55.69
2022-08-31T12:44:21.744Z,57.01
2022-08-31T12:45:21.717Z,57.81
2022-08-31T12:46:21.762Z,56.68
2022-08-31T12:47:24.125Z,55.79
2022-08-31T12:48:21.685Z,55.47
2022-08-31T12:49:21.665Z,55.36
2022-08-31T12:50:24.179Z,56.95
2022-08-31T12:51:21.666Z,55.19
2022-08-31T12:52:21.654Z,56.73
2022-08-31T12:53:22.176Z,55.44
2022-08-31T12:54:22.196Z,56.70
2022-08-31T12:55:21.598Z,55.02
2022-08-31T12:56:21.603Z,54.82
2022-08-31T12:57:26.993Z,54.99
2022-08-31T12:58:22.598Z,54.72